FWI4TR TNCM-EKCH
Flight info
| Callsign | FWI4TR |
|---|---|
| Flight time | N/A |
| Altitude | 35000 |
| Route | MODOR2 MNOLO M576 RKDIA DCT 31N050W 39N040W/M085F370 45N030W 51N020W DCT DOGAL/N0487F370 DCT BEXET/N0486F390 DCT MIMKU DCT KLONN DCT PEVEB/N0400F130 L621 ERNOV |
| Aircraft | A35K/H-SDE2E3GHIJ3J4J5LM1ORWXY/LB1D1 |
Departure
| Time | N/A |
|---|---|
| Airport | Princess Juliana International Airport (TNCM) |
Arrival
| Time | 2026-05-07 07:54 |
|---|---|
| Airport | Copenhagen Kastrup Airport (EKCH) |
| Time | Latitude | Longitude | Altitude | Speed | Heading |
|---|---|---|---|---|---|
| 2026-05-07 07:18 | 57.41625 | 9.35860 | 35064 ft | 520 kts | 131° |
| 2026-05-07 07:19 | 57.37632 | 9.44191 | 35066 ft | 520 kts | 131° |
| 2026-05-07 07:19 | 57.32818 | 9.54198 | 35065 ft | 520 kts | 131° |
| 2026-05-07 07:20 | 57.28001 | 9.64172 | 35040 ft | 520 kts | 131° |
| 2026-05-07 07:20 | 57.23189 | 9.74091 | 35061 ft | 517 kts | 131° |
| 2026-05-07 07:21 | 57.18390 | 9.83949 | 35074 ft | 517 kts | 132° |
| 2026-05-07 07:21 | 57.13568 | 9.93812 | 35084 ft | 517 kts | 132° |
| 2026-05-07 07:22 | 57.09131 | 10.04191 | 35064 ft | 517 kts | 123° |
| 2026-05-07 07:22 | 57.05212 | 10.15290 | 35070 ft | 517 kts | 122° |
| 2026-05-07 07:23 | 57.01397 | 10.26389 | 35062 ft | 517 kts | 122° |
| 2026-05-07 07:23 | 56.97547 | 10.37527 | 35059 ft | 517 kts | 122° |
| 2026-05-07 07:24 | 56.93671 | 10.48628 | 35053 ft | 516 kts | 122° |
| 2026-05-07 07:24 | 56.89795 | 10.59652 | 35064 ft | 513 kts | 122° |
| 2026-05-07 07:25 | 56.84004 | 10.76034 | 35064 ft | 510 kts | 123° |
| 2026-05-07 07:26 | 56.80144 | 10.86887 | 35066 ft | 510 kts | 123° |
| 2026-05-07 07:26 | 56.76275 | 10.97721 | 35064 ft | 510 kts | 123° |
| 2026-05-07 07:27 | 56.72395 | 11.08538 | 35065 ft | 510 kts | 123° |
| 2026-05-07 07:27 | 56.68506 | 11.19330 | 35064 ft | 509 kts | 123° |
| 2026-05-07 07:28 | 56.64633 | 11.30029 | 35064 ft | 509 kts | 123° |
| 2026-05-07 07:28 | 56.60728 | 11.40779 | 35064 ft | 509 kts | 123° |
| 2026-05-07 07:29 | 56.56823 | 11.51500 | 35062 ft | 509 kts | 123° |
| 2026-05-07 07:29 | 56.54872 | 11.56846 | 34957 ft | 507 kts | 123° |
| 2026-05-07 07:29 | 56.52921 | 11.62175 | 34714 ft | 507 kts | 123° |
| 2026-05-07 07:29 | 56.50970 | 11.67491 | 34471 ft | 507 kts | 124° |
| 2026-05-07 07:30 | 56.49010 | 11.72805 | 34230 ft | 507 kts | 124° |
| 2026-05-07 07:30 | 56.47048 | 11.78103 | 33974 ft | 507 kts | 124° |
| 2026-05-07 07:30 | 56.45075 | 11.83417 | 33704 ft | 507 kts | 124° |
| 2026-05-07 07:30 | 56.43138 | 11.88630 | 33109 ft | 504 kts | 124° |
| 2026-05-07 07:31 | 56.41183 | 11.93882 | 32313 ft | 502 kts | 124° |
| 2026-05-07 07:31 | 56.39228 | 11.99113 | 31471 ft | 501 kts | 124° |
| 2026-05-07 07:31 | 56.37273 | 12.04335 | 30632 ft | 501 kts | 124° |
| 2026-05-07 07:31 | 56.35318 | 12.09543 | 29715 ft | 501 kts | 124° |
| 2026-05-07 07:32 | 56.33365 | 12.14734 | 28785 ft | 500 kts | 125° |
| 2026-05-07 07:32 | 56.31429 | 12.19866 | 28204 ft | 491 kts | 125° |
| 2026-05-07 07:32 | 56.29528 | 12.24904 | 27608 ft | 484 kts | 125° |
| 2026-05-07 07:32 | 56.27645 | 12.29894 | 27294 ft | 485 kts | 125° |
| 2026-05-07 07:33 | 56.25728 | 12.34963 | 27090 ft | 491 kts | 125° |
| 2026-05-07 07:33 | 56.23796 | 12.40055 | 27063 ft | 492 kts | 125° |
| 2026-05-07 07:33 | 56.21888 | 12.45065 | 27063 ft | 492 kts | 125° |
| 2026-05-07 07:33 | 56.19936 | 12.50180 | 27059 ft | 491 kts | 126° |
| 2026-05-07 07:34 | 56.18022 | 12.55185 | 27064 ft | 491 kts | 126° |
| 2026-05-07 07:34 | 56.15965 | 12.60055 | 27058 ft | 487 kts | 133° |
| 2026-05-07 07:34 | 56.13553 | 12.64124 | 27059 ft | 464 kts | 142° |
| 2026-05-07 07:34 | 56.11006 | 12.67627 | 27062 ft | 469 kts | 149° |
| 2026-05-07 07:35 | 56.08121 | 12.70466 | 27064 ft | 473 kts | 159° |
| 2026-05-07 07:35 | 56.05048 | 12.72226 | 26791 ft | 456 kts | 171° |
| 2026-05-07 07:35 | 56.01960 | 12.72739 | 26439 ft | 437 kts | 184° |
| 2026-05-07 07:35 | 55.99019 | 12.71897 | 26067 ft | 420 kts | 199° |
| 2026-05-07 07:36 | 55.96424 | 12.69733 | 25724 ft | 403 kts | 215° |
| 2026-05-07 07:36 | 55.94209 | 12.66796 | 25475 ft | 391 kts | 218° |
| 2026-05-07 07:36 | 55.92090 | 12.64006 | 24905 ft | 376 kts | 216° |
| 2026-05-07 07:36 | 55.89972 | 12.61429 | 24282 ft | 361 kts | 214° |
| 2026-05-07 07:37 | 55.87903 | 12.59055 | 23689 ft | 348 kts | 213° |
| 2026-05-07 07:37 | 55.85943 | 12.56653 | 22980 ft | 335 kts | 220° |
| 2026-05-07 07:37 | 55.84400 | 12.53684 | 22336 ft | 321 kts | 237° |
| 2026-05-07 07:37 | 55.83550 | 12.50173 | 22025 ft | 302 kts | 257° |
| 2026-05-07 07:38 | 55.83541 | 12.46486 | 21464 ft | 304 kts | 279° |
| 2026-05-07 07:38 | 55.84339 | 12.42893 | 20686 ft | 319 kts | 295° |
| 2026-05-07 07:38 | 55.85651 | 12.39664 | 19896 ft | 326 kts | 311° |
| 2026-05-07 07:38 | 55.87525 | 12.37393 | 19134 ft | 330 kts | 334° |
| 2026-05-07 07:39 | 55.89776 | 12.36651 | 18396 ft | 333 kts | 358° |
| 2026-05-07 07:39 | 55.92040 | 12.37515 | 17564 ft | 337 kts | 19° |
| 2026-05-07 07:39 | 55.94099 | 12.39449 | 16737 ft | 333 kts | 27° |
| 2026-05-07 07:39 | 55.96034 | 12.41654 | 15931 ft | 328 kts | 30° |
| 2026-05-07 07:40 | 55.97922 | 12.43928 | 15130 ft | 324 kts | 31° |
| 2026-05-07 07:40 | 55.99768 | 12.46175 | 14314 ft | 319 kts | 31° |
| 2026-05-07 07:40 | 56.01461 | 12.48684 | 13454 ft | 316 kts | 45° |
| 2026-05-07 07:40 | 56.02637 | 12.51963 | 12516 ft | 315 kts | 65° |
| 2026-05-07 07:41 | 56.03112 | 12.55763 | 11624 ft | 313 kts | 84° |
| 2026-05-07 07:41 | 56.03147 | 12.59626 | 10756 ft | 310 kts | 91° |
| 2026-05-07 07:41 | 56.02693 | 12.63214 | 10509 ft | 288 kts | 109° |
| 2026-05-07 07:41 | 56.01644 | 12.66237 | 10505 ft | 293 kts | 130° |
| 2026-05-07 07:42 | 56.00002 | 12.68419 | 10511 ft | 298 kts | 153° |
| 2026-05-07 07:42 | 55.97994 | 12.69252 | 10512 ft | 299 kts | 178° |
| 2026-05-07 07:42 | 55.95961 | 12.68599 | 10511 ft | 298 kts | 201° |
| 2026-05-07 07:42 | 55.94209 | 12.66674 | 10485 ft | 293 kts | 219° |
| 2026-05-07 07:43 | 55.92658 | 12.64449 | 10344 ft | 280 kts | 217° |
| 2026-05-07 07:43 | 55.91098 | 12.62431 | 10060 ft | 274 kts | 213° |
| 2026-05-07 07:43 | 55.89467 | 12.60549 | 9819 ft | 287 kts | 211° |
| 2026-05-07 07:43 | 55.87728 | 12.58714 | 9690 ft | 290 kts | 208° |
| 2026-05-07 07:44 | 55.85904 | 12.57187 | 9173 ft | 290 kts | 200° |
| 2026-05-07 07:44 | 55.84024 | 12.55916 | 8775 ft | 289 kts | 199° |
| 2026-05-07 07:44 | 55.82132 | 12.54688 | 8457 ft | 288 kts | 199° |
| 2026-05-07 07:44 | 55.80250 | 12.53471 | 8146 ft | 287 kts | 199° |
| 2026-05-07 07:45 | 55.78376 | 12.52261 | 7837 ft | 285 kts | 199° |
| 2026-05-07 07:45 | 55.76541 | 12.51076 | 7534 ft | 284 kts | 199° |
| 2026-05-07 07:45 | 55.74689 | 12.49880 | 7230 ft | 282 kts | 199° |
| 2026-05-07 07:45 | 55.72847 | 12.48692 | 6927 ft | 281 kts | 199° |
| 2026-05-07 07:46 | 55.71011 | 12.47509 | 6616 ft | 280 kts | 199° |
| 2026-05-07 07:46 | 55.69187 | 12.46334 | 6302 ft | 278 kts | 199° |
| 2026-05-07 07:46 | 55.67367 | 12.45163 | 5984 ft | 277 kts | 199° |
| 2026-05-07 07:46 | 55.65559 | 12.43999 | 5690 ft | 276 kts | 198° |
| 2026-05-07 07:47 | 55.63755 | 12.42840 | 5394 ft | 275 kts | 198° |
| 2026-05-07 07:47 | 55.61956 | 12.41686 | 5083 ft | 274 kts | 198° |
| 2026-05-07 07:47 | 55.60183 | 12.40478 | 4754 ft | 273 kts | 202° |
| 2026-05-07 07:47 | 55.58514 | 12.38878 | 4399 ft | 272 kts | 209° |
| 2026-05-07 07:48 | 55.56915 | 12.37159 | 4160 ft | 263 kts | 210° |
| 2026-05-07 07:48 | 55.55393 | 12.35503 | 4033 ft | 250 kts | 210° |
| 2026-05-07 07:48 | 55.53965 | 12.33950 | 3880 ft | 239 kts | 210° |
| 2026-05-07 07:48 | 55.52497 | 12.32671 | 3686 ft | 234 kts | 192° |
| 2026-05-07 07:49 | 55.50930 | 12.32928 | 3513 ft | 227 kts | 149° |
| 2026-05-07 07:49 | 55.49751 | 12.34727 | 3278 ft | 226 kts | 127° |
| 2026-05-07 07:49 | 55.48758 | 12.36878 | 3026 ft | 227 kts | 124° |
| 2026-05-07 07:49 | 55.47968 | 12.39172 | 2896 ft | 210 kts | 100° |
| 2026-05-07 07:50 | 55.48075 | 12.41568 | 2849 ft | 192 kts | 67° |
| 2026-05-07 07:50 | 55.48668 | 12.43603 | 2752 ft | 180 kts | 54° |
| 2026-05-07 07:50 | 55.49431 | 12.45255 | 2573 ft | 171 kts | 37° |
| 2026-05-07 07:50 | 55.50344 | 12.46564 | 2330 ft | 169 kts | 41° |
| 2026-05-07 07:51 | 55.51218 | 12.47955 | 2172 ft | 169 kts | 39° |
| 2026-05-07 07:51 | 55.52092 | 12.49332 | 1956 ft | 168 kts | 40° |
| 2026-05-07 07:51 | 55.52949 | 12.50666 | 1745 ft | 161 kts | 39° |
| 2026-05-07 07:51 | 55.53777 | 12.51939 | 1507 ft | 154 kts | 39° |
| 2026-05-07 07:52 | 55.54559 | 12.53149 | 1303 ft | 145 kts | 39° |
| 2026-05-07 07:52 | 55.55285 | 12.54269 | 1091 ft | 135 kts | 38° |
| 2026-05-07 07:52 | 55.55983 | 12.55360 | 870 ft | 130 kts | 38° |
| 2026-05-07 07:52 | 55.56660 | 12.56402 | 788 ft | 131 kts | 38° |
| 2026-05-07 07:53 | 55.57359 | 12.57489 | 582 ft | 135 kts | 38° |
| 2026-05-07 07:53 | 55.58056 | 12.58571 | 336 ft | 131 kts | 38° |
| 2026-05-07 07:53 | 55.58750 | 12.59633 | 183 ft | 132 kts | 38° |
| 2026-05-07 07:53 | 55.59445 | 12.60692 | 35 ft | 131 kts | 37° |
| 2026-05-07 07:54 | 55.60051 | 12.61642 | 28 ft | 100 kts | 41° |
| 2026-05-07 07:54 | 55.60503 | 12.62345 | 31 ft | 74 kts | 40° |
| 2026-05-07 07:54 | 55.60737 | 12.62691 | 28 ft | 25 kts | 38° |
| 2026-05-07 07:54 | 55.60896 | 12.62835 | 29 ft | 26 kts | 17° |
| 2026-05-07 07:55 | 55.61082 | 12.62907 | 27 ft | 28 kts | 13° |
| 2026-05-07 07:55 | 55.61240 | 12.63095 | 28 ft | 28 kts | 41° |
| 2026-05-07 07:55 | 55.61392 | 12.63331 | 32 ft | 31 kts | 41° |
| 2026-05-07 07:55 | 55.61557 | 12.63585 | 26 ft | 33 kts | 41° |
| 2026-05-07 07:56 | 55.61733 | 12.63857 | 27 ft | 33 kts | 41° |
| 2026-05-07 07:56 | 55.61918 | 12.64114 | 27 ft | 34 kts | 24° |
| 2026-05-07 07:56 | 55.62122 | 12.64279 | 28 ft | 15 kts | 26° |
| 2026-05-07 07:56 | 55.62152 | 12.64305 | 27 ft | 7 kts | 26° |
| 2026-05-07 07:57 | 55.62218 | 12.64363 | 25 ft | 13 kts | 24° |
| 2026-05-07 07:57 | 55.62306 | 12.64410 | 29 ft | 14 kts | 16° |
| 2026-05-07 07:57 | 55.62410 | 12.64440 | 29 ft | 16 kts | 343° |
| 2026-05-07 07:57 | 55.62489 | 12.64288 | 26 ft | 18 kts | 303° |
| 2026-05-07 07:58 | 55.62577 | 12.64227 | 29 ft | 12 kts | 40° |
| 2026-05-07 07:58 | 55.62611 | 12.64361 | 28 ft | 14 kts | 68° |
| 2026-05-07 07:58 | 55.62623 | 12.64410 | 28 ft | 0 kts | 66° |